Time;durP1;ratioP1;P1;durP2;ratioP2;P2;SDS_P1;SDS_P2;PMS_P1;PMS_P2;Temp;Humidity;BMP_temperature;BMP_pressure;BME280_temperature;BME280_humidity;BME280_pressure;Samples;Min_cycle;Max_cycle;Signal;HPM_P1;HPM_P2
2023/02/07 00:00:18;;;;;;;113.75;57.92;;;;;;;;;;5016525;28;20471;-67
2023/02/07 00:02:44;;;;;;;124.82;61.58;;;;;;;;;;5016431;28;20025;-67
2023/02/07 00:05:10;;;;;;;137.00;72.55;;;;;;;;;;5033921;28;20091;-66
2023/02/07 00:07:35;;;;;;;129.63;68.97;;;;;;;;;;5034106;28;20096;-67
2023/02/07 00:10:01;;;;;;;116.40;60.42;;;;;;;;;;5034228;28;20033;-67
2023/02/07 00:12:26;;;;;;;112.55;56.20;;;;;;;;;;5016437;28;20071;-67
2023/02/07 00:14:52;;;;;;;108.22;54.92;;;;;;;;;;5016357;28;20040;-67
2023/02/07 00:17:18;;;;;;;92.45;49.08;;;;;;;;;;5034174;28;20456;-65
2023/02/07 00:19:43;;;;;;;88.88;47.88;;;;;;;;;;5034146;28;20424;-66
2023/02/07 00:22:09;;;;;;;100.85;50.60;;;;;;;;;;5016230;28;20056;-66
2023/02/07 00:24:34;;;;;;;111.20;60.95;;;;;;;;;;5015230;28;20345;-66
2023/02/07 00:27:00;;;;;;;119.88;63.60;;;;;;;;;;5016268;28;20030;-65
2023/02/07 00:29:26;;;;;;;118.03;61.50;;;;;;;;;;5033873;28;20017;-64
2023/02/07 00:31:51;;;;;;;105.57;56.90;;;;;;;;;;5033960;28;20034;-66
2023/02/07 00:34:16;;;;;;;105.82;55.92;;;;;;;;;;4999630;28;20051;-68
2023/02/07 00:36:42;;;;;;;96.30;51.60;;;;;;;;;;5033401;28;20116;-69
2023/02/07 00:39:11;;;;;;;96.07;51.40;;;;;;;;;;5033579;28;20101;-69
2023/02/07 00:41:36;;;;;;;97.05;53.20;;;;;;;;;;5015952;28;20516;-69
2023/02/07 00:44:02;;;;;;;116.15;63.03;;;;;;;;;;5015712;28;20034;-69
2023/02/07 00:47:01;;;;;;;107.03;58.30;;;;;;;;;;5047629;23;20457;-69
2023/02/07 00:49:26;;;;;;;86.85;45.80;;;;;;;;;;5031958;28;20411;-70
2023/02/07 00:51:51;;;;;;;124.75;62.55;;;;;;;;;;5035022;28;20025;-70
2023/02/07 00:54:18;;;;;;;138.77;70.32;;;;;;;;;;5052781;28;20036;-71
2023/02/07 00:56:44;;;;;;;132.85;70.05;;;;;;;;;;5052490;28;20112;-71
2023/02/07 00:59:09;;;;;;;131.52;72.75;;;;;;;;;;5052662;28;20040;-71
2023/02/07 01:01:34;;;;;;;150.98;79.90;;;;;;;;;;5052885;28;20656;-71
2023/02/07 01:04:00;;;;;;;140.10;74.85;;;;;;;;;;5052740;28;20382;-70
2023/02/07 01:06:26;;;;;;;159.05;83.10;;;;;;;;;;5035088;28;20494;-71
2023/02/07 01:08:56;;;;;;;156.95;84.03;;;;;;;;;;5052600;28;20120;-72
2023/02/07 01:11:22;;;;;;;159.30;85.23;;;;;;;;;;5052721;28;20108;-70
2023/02/07 01:13:47;;;;;;;140.70;75.80;;;;;;;;;;5035279;28;20044;-72
2023/02/07 01:16:19;;;;;;;133.93;72.63;;;;;;;;;;5034814;28;20068;-72
2023/02/07 01:18:45;;;;;;;149.70;81.57;;;;;;;;;;5034827;28;20025;-72
2023/02/07 01:21:15;;;;;;;157.93;81.25;;;;;;;;;;5034884;28;20376;-72
2023/02/07 01:23:40;;;;;;;167.45;89.75;;;;;;;;;;5034608;28;20051;-72
2023/02/07 01:26:06;;;;;;;178.60;93.63;;;;;;;;;;5034798;28;20029;-71
2023/02/07 01:28:32;;;;;;;153.15;79.97;;;;;;;;;;5052943;28;20489;-72
2023/02/07 01:30:57;;;;;;;124.25;63.53;;;;;;;;;;5052795;28;20020;-72
2023/02/07 01:33:23;;;;;;;143.52;73.07;;;;;;;;;;5052547;28;20380;-72
2023/02/07 01:36:04;;;;;;;157.80;80.32;;;;;;;;;;5051965;28;20013;-67
2023/02/07 01:38:29;;;;;;;141.85;75.70;;;;;;;;;;5052530;28;20099;-67
2023/02/07 01:40:55;;;;;;;127.40;67.50;;;;;;;;;;5052194;28;20474;-68
2023/02/07 01:43:22;;;;;;;147.43;73.57;;;;;;;;;;5034546;28;20033;-68
2023/02/07 01:45:48;;;;;;;148.38;77.15;;;;;;;;;;5052194;28;20440;-68
2023/02/07 01:48:19;;;;;;;155.43;78.93;;;;;;;;;;5034633;28;20071;-67
2023/02/07 01:50:46;;;;;;;153.57;79.32;;;;;;;;;;5052413;28;20047;-67
2023/02/07 01:53:13;;;;;;;151.40;78.05;;;;;;;;;;5034409;28;20028;-67
2023/02/07 01:55:39;;;;;;;146.00;73.25;;;;;;;;;;5052414;28;20027;-67
2023/02/07 01:58:06;;;;;;;132.57;67.63;;;;;;;;;;5052113;28;20120;-67
2023/02/07 02:00:31;;;;;;;129.57;63.15;;;;;;;;;;5017743;28;20100;-66
2023/02/07 02:02:57;;;;;;;111.72;55.55;;;;;;;;;;5034237;28;20049;-66
2023/02/07 02:05:24;;;;;;;140.13;70.38;;;;;;;;;;5033921;28;20029;-67
2023/02/07 02:07:50;;;;;;;137.93;70.78;;;;;;;;;;5051955;28;20032;-66
2023/02/07 02:10:17;;;;;;;160.25;79.90;;;;;;;;;;5034176;28;20084;-69
2023/02/07 02:12:42;;;;;;;164.25;78.93;;;;;;;;;;5052486;28;20025;-68
2023/02/07 02:15:20;;;;;;;118.72;58.60;;;;;;;;;;5052041;28;20028;-66
2023/02/07 02:17:48;;;;;;;126.93;61.65;;;;;;;;;;5034168;28;20037;-69
2023/02/07 02:20:22;;;;;;;99.80;50.97;;;;;;;;;;5051911;28;20431;-66
2023/02/07 02:23:10;;;;;;;154.00;74.95;;;;;;;;;;5033954;28;20441;-65
2023/02/07 02:25:53;;;;;;;151.38;68.32;;;;;;;;;;5051827;28;20037;-64
2023/02/07 02:28:38;;;;;;;97.57;50.08;;;;;;;;;;5033982;28;20061;-65
2023/02/07 02:31:06;;;;;;;96.70;49.75;;;;;;;;;;5052012;28;20023;-65
2023/02/07 02:33:52;;;;;;;102.57;50.70;;;;;;;;;;5034034;28;20025;-67
2023/02/07 02:36:36;;;;;;;126.00;63.15;;;;;;;;;;5033324;28;20052;-67
2023/02/07 02:39:05;;;;;;;130.88;61.45;;;;;;;;;;5033743;28;20052;-68
2023/02/07 02:41:36;;;;;;;130.23;62.95;;;;;;;;;;5033962;28;20033;-67
2023/02/07 02:44:17;;;;;;;120.05;59.47;;;;;;;;;;5051548;28;20052;-68
2023/02/07 02:46:43;;;;;;;118.90;60.05;;;;;;;;;;5033665;28;20065;-69
2023/02/07 02:49:10;;;;;;;117.43;60.42;;;;;;;;;;5055474;28;20025;-69
2023/02/07 02:51:51;;;;;;;126.93;62.38;;;;;;;;;;5021190;28;20047;-67
2023/02/07 02:54:25;;;;;;;97.45;50.15;;;;;;;;;;5037722;28;20033;-69
2023/02/07 02:56:57;;;;;;;104.05;50.70;;;;;;;;;;5037456;28;20033;-69
2023/02/07 02:59:35;;;;;;;110.68;54.03;;;;;;;;;;5037352;28;20060;-69
2023/02/07 03:02:16;;;;;;;114.45;56.20;;;;;;;;;;5037254;28;20044;-69
2023/02/07 03:05:11;;;;;;;126.05;63.25;;;;;;;;;;5018847;28;20033;-70
2023/02/07 03:07:42;;;;;;;120.00;59.08;;;;;;;;;;5000627;28;20508;-67
2023/02/07 03:10:11;;;;;;;101.50;52.38;;;;;;;;;;5037211;28;20039;-68
2023/02/07 03:12:53;;;;;;;122.50;61.15;;;;;;;;;;5037209;28;20080;-66
2023/02/07 03:15:31;;;;;;;114.82;56.40;;;;;;;;;;5036823;28;20032;-65
2023/02/07 03:18:00;;;;;;;110.43;54.33;;;;;;;;;;5017472;28;20068;-71
2023/02/07 03:20:29;;;;;;;127.57;67.82;;;;;;;;;;5034956;28;20088;-71
2023/02/07 03:22:56;;;;;;;112.88;60.00;;;;;;;;;;5017324;28;20029;-71
2023/02/07 03:25:22;;;;;;;113.90;53.15;;;;;;;;;;5017132;28;20022;-70
2023/02/07 03:27:58;;;;;;;103.30;52.38;;;;;;;;;;5017317;28;20117;-70
2023/02/07 03:30:25;;;;;;;103.03;52.42;;;;;;;;;;5017399;28;20045;-70
2023/02/07 03:32:54;;;;;;;106.50;54.17;;;;;;;;;;5045380;28;20550;-69
2023/02/07 03:35:23;;;;;;;122.07;63.65;;;;;;;;;;5036466;28;20372;-69
2023/02/07 03:37:55;;;;;;;108.75;55.90;;;;;;;;;;5054813;28;20021;-70
2023/02/07 03:40:20;;;;;;;110.80;58.15;;;;;;;;;;5036445;28;20033;-69
2023/02/07 03:43:03;;;;;;;112.22;55.97;;;;;;;;;;5054489;28;20029;-70
2023/02/07 03:45:28;;;;;;;95.63;51.40;;;;;;;;;;5054564;28;20021;-69
2023/02/07 03:47:54;;;;;;;98.90;50.50;;;;;;;;;;5036694;28;20728;-70
2023/02/07 03:50:19;;;;;;;94.13;52.15;;;;;;;;;;5054364;28;20037;-70
2023/02/07 03:52:44;;;;;;;109.85;56.35;;;;;;;;;;5054448;28;20085;-70
2023/02/07 03:55:10;;;;;;;113.57;57.50;;;;;;;;;;5054405;28;20039;-70
2023/02/07 03:57:35;;;;;;;106.05;52.80;;;;;;;;;;5054237;28;20072;-71
2023/02/07 04:00:01;;;;;;;101.18;53.00;;;;;;;;;;5054261;28;20033;-71
2023/02/07 04:02:26;;;;;;;99.45;52.92;;;;;;;;;;5054353;28;20116;-70
2023/02/07 04:04:51;;;;;;;103.10;52.55;;;;;;;;;;5054103;28;20041;-70
2023/02/07 04:07:17;;;;;;;106.03;53.47;;;;;;;;;;5054178;28;20091;-70
2023/02/07 04:09:42;;;;;;;99.65;51.95;;;;;;;;;;5053989;28;20525;-70
2023/02/07 04:12:08;;;;;;;100.57;51.08;;;;;;;;;;5054148;28;20467;-71
2023/02/07 04:14:34;;;;;;;98.35;50.40;;;;;;;;;;5036415;28;20111;-71
2023/02/07 04:16:59;;;;;;;108.05;55.33;;;;;;;;;;5053737;28;20444;-69
2023/02/07 04:19:24;;;;;;;110.90;52.42;;;;;;;;;;5035752;28;20115;-70
2023/02/07 04:21:50;;;;;;;99.53;51.58;;;;;;;;;;5053349;28;20051;-70
2023/02/07 04:24:15;;;;;;;100.78;50.78;;;;;;;;;;5053651;28;20021;-70
2023/02/07 04:26:45;;;;;;;96.32;49.20;;;;;;;;;;5053799;28;20022;-70
2023/02/07 04:29:10;;;;;;;99.05;49.75;;;;;;;;;;5053386;28;20025;-70
2023/02/07 04:31:36;;;;;;;94.70;49.97;;;;;;;;;;5053241;28;20759;-65
2023/02/07 04:34:02;;;;;;;99.78;51.85;;;;;;;;;;5036151;28;20037;-65
2023/02/07 04:36:29;;;;;;;108.78;55.85;;;;;;;;;;5053438;28;20029;-65
2023/02/07 04:38:54;;;;;;;102.72;52.72;;;;;;;;;;5053407;28;20021;-67
2023/02/07 04:41:20;;;;;;;105.82;51.03;;;;;;;;;;5018863;28;20502;-65
2023/02/07 04:43:45;;;;;;;102.60;52.15;;;;;;;;;;5035591;28;20028;-65
2023/02/07 04:46:10;;;;;;;106.15;54.88;;;;;;;;;;5053270;28;20037;-66
2023/02/07 04:48:39;;;;;;;105.55;53.28;;;;;;;;;;5053364;28;20025;-65
2023/02/07 04:51:04;;;;;;;98.32;51.60;;;;;;;;;;5019279;28;20025;-66
2023/02/07 04:53:30;;;;;;;105.32;55.28;;;;;;;;;;5035542;28;20048;-66
2023/02/07 04:55:55;;;;;;;107.82;54.50;;;;;;;;;;5035463;28;20460;-66
2023/02/07 04:58:21;;;;;;;111.35;59.00;;;;;;;;;;5053180;28;20499;-65
2023/02/07 05:00:46;;;;;;;108.35;58.70;;;;;;;;;;5052842;28;20039;-66
2023/02/07 05:03:12;;;;;;;109.03;57.63;;;;;;;;;;5053309;28;20467;-66
2023/02/07 05:05:39;;;;;;;106.63;56.58;;;;;;;;;;5053109;28;20033;-66
2023/02/07 05:08:04;;;;;;;101.00;53.65;;;;;;;;;;5053466;28;20036;-68
2023/02/07 05:10:29;;;;;;;98.85;50.90;;;;;;;;;;5052694;28;20025;-67
2023/02/07 05:12:55;;;;;;;100.80;54.53;;;;;;;;;;5053284;28;20032;-69
2023/02/07 05:15:20;;;;;;;108.60;57.90;;;;;;;;;;5035454;28;20091;-68
2023/02/07 05:17:45;;;;;;;124.38;68.22;;;;;;;;;;5052515;28;20029;-71
2023/02/07 05:20:11;;;;;;;114.60;62.67;;;;;;;;;;5035238;28;20025;-68
2023/02/07 05:22:36;;;;;;;114.15;64.28;;;;;;;;;;5036392;28;20029;-71
2023/02/07 05:25:02;;;;;;;103.80;55.85;;;;;;;;;;5053750;28;20436;-71
2023/02/07 05:27:27;;;;;;;102.55;53.80;;;;;;;;;;5053551;28;20115;-70
2023/02/07 05:29:52;;;;;;;101.07;51.72;;;;;;;;;;5054156;28;20032;-71
2023/02/07 05:35:03;;;;;;;110.72;56.83;;;;;;;;;;5052408;28;20441;-70
2023/02/07 05:37:28;;;;;;;109.47;57.45;;;;;;;;;;5053295;28;20033;-70
2023/02/07 05:39:54;;;;;;;106.35;57.20;;;;;;;;;;5052584;28;20075;-70
2023/02/07 05:42:19;;;;;;;108.30;58.00;;;;;;;;;;5052481;28;20052;-68
2023/02/07 05:44:44;;;;;;;115.82;58.47;;;;;;;;;;5053378;28;20028;-68
2023/02/07 05:47:13;;;;;;;112.03;58.13;;;;;;;;;;5035307;28;20423;-68
2023/02/07 05:49:38;;;;;;;117.95;59.15;;;;;;;;;;5018208;28;20376;-71
2023/02/07 05:52:04;;;;;;;118.88;59.17;;;;;;;;;;5036675;28;20044;-70
2023/02/07 05:54:30;;;;;;;114.35;58.85;;;;;;;;;;5020247;28;20028;-70
2023/02/07 05:56:55;;;;;;;123.53;62.22;;;;;;;;;;5034949;28;20041;-70
2023/02/07 05:59:20;;;;;;;132.00;66.72;;;;;;;;;;5052718;28;20079;-70
2023/02/07 06:01:46;;;;;;;134.80;68.18;;;;;;;;;;5052878;28;20457;-67
2023/02/07 06:04:11;;;;;;;138.88;70.38;;;;;;;;;;5034655;28;20029;-72
2023/02/07 06:06:36;;;;;;;143.60;73.47;;;;;;;;;;5052536;28;20162;-72
2023/02/07 06:09:02;;;;;;;155.10;80.25;;;;;;;;;;5034744;28;20025;-71
2023/02/07 06:11:27;;;;;;;160.20;84.13;;;;;;;;;;5034804;28;20036;-72
2023/02/07 06:13:53;;;;;;;158.43;82.47;;;;;;;;;;5052468;28;20028;-72
2023/02/07 06:16:22;;;;;;;127.90;65.28;;;;;;;;;;5053463;28;20033;-74
2023/02/07 06:18:48;;;;;;;152.45;77.13;;;;;;;;;;5052845;28;20029;-74
2023/02/07 06:21:13;;;;;;;156.13;78.43;;;;;;;;;;5020179;28;20032;-74
2023/02/07 06:23:38;;;;;;;145.02;73.93;;;;;;;;;;5039332;28;20513;-72
2023/02/07 06:26:04;;;;;;;127.32;67.22;;;;;;;;;;5056742;28;20055;-73
2023/02/07 06:28:29;;;;;;;130.20;64.60;;;;;;;;;;5056518;28;20035;-73
2023/02/07 06:30:54;;;;;;;126.80;64.35;;;;;;;;;;5057223;28;20587;-73
2023/02/07 06:33:20;;;;;;;115.47;59.33;;;;;;;;;;5054484;28;20094;-73
2023/02/07 06:35:46;;;;;;;118.95;61.45;;;;;;;;;;5055585;28;20044;-73
2023/02/07 06:38:17;;;;;;;117.63;58.80;;;;;;;;;;5038215;28;20094;-73
2023/02/07 06:40:43;;;;;;;120.47;59.70;;;;;;;;;;5037027;28;20430;-73
2023/02/07 06:43:09;;;;;;;110.70;56.88;;;;;;;;;;5037100;28;20037;-74
2023/02/07 06:45:34;;;;;;;113.45;60.42;;;;;;;;;;5054789;28;20021;-74
2023/02/07 06:48:00;;;;;;;105.57;56.90;;;;;;;;;;5054430;28;20041;-73
2023/02/07 06:50:25;;;;;;;112.38;58.80;;;;;;;;;;5052147;28;20040;-74
2023/02/07 06:52:50;;;;;;;120.03;60.13;;;;;;;;;;5053675;28;20072;-74
2023/02/07 06:55:16;;;;;;;102.82;54.17;;;;;;;;;;5037058;28;20017;-73
2023/02/07 06:57:41;;;;;;;102.60;54.75;;;;;;;;;;5054876;28;20028;-73
2023/02/07 07:00:07;;;;;;;98.28;53.60;;;;;;;;;;5054867;28;20438;-74
2023/02/07 07:02:32;;;;;;;99.07;52.97;;;;;;;;;;5054757;28;20036;-74
2023/02/07 07:04:58;;;;;;;102.00;54.85;;;;;;;;;;5038729;28;20037;-74
2023/02/07 07:07:24;;;;;;;108.40;59.65;;;;;;;;;;5038865;28;20108;-74
2023/02/07 07:09:49;;;;;;;106.00;57.15;;;;;;;;;;5056868;28;20048;-72
2023/02/07 07:12:15;;;;;;;106.03;55.58;;;;;;;;;;5056243;28;20021;-74
2023/02/07 07:14:40;;;;;;;240.00;131.05;;;;;;;;;;5056500;28;20488;-74
2023/02/07 07:17:06;;;;;;;216.43;129.25;;;;;;;;;;5038443;28;20033;-74
2023/02/07 07:19:31;;;;;;;100.80;55.15;;;;;;;;;;5056155;28;20043;-74
2023/02/07 07:21:57;;;;;;;98.22;50.10;;;;;;;;;;5056126;28;20101;-74
2023/02/07 07:24:24;;;;;;;94.68;48.13;;;;;;;;;;5056236;28;20032;-73
2023/02/07 07:26:49;;;;;;;95.25;51.72;;;;;;;;;;5056327;28;20056;-73
2023/02/07 07:29:15;;;;;;;113.22;56.58;;;;;;;;;;5038504;28;20021;-73
2023/02/07 07:31:40;;;;;;;128.90;62.47;;;;;;;;;;5056181;28;20443;-73
2023/02/07 07:34:07;;;;;;;119.32;60.60;;;;;;;;;;5055546;28;20111;-73
2023/02/07 07:36:32;;;;;;;120.65;61.10;;;;;;;;;;5038356;28;20452;-74
2023/02/07 07:38:57;;;;;;;120.50;60.95;;;;;;;;;;5037990;28;20082;-74
2023/02/07 07:41:23;;;;;;;124.28;64.85;;;;;;;;;;5056301;28;20047;-74
2023/02/07 07:43:49;;;;;;;147.98;75.50;;;;;;;;;;5038160;28;20036;-74
2023/02/07 07:46:14;;;;;;;155.60;80.55;;;;;;;;;;5021125;28;20033;-74
2023/02/07 07:48:39;;;;;;;163.23;87.97;;;;;;;;;;5055618;28;20471;-73
2023/02/07 07:51:05;;;;;;;159.30;89.22;;;;;;;;;;5038102;28;20040;-74
2023/02/07 07:53:30;;;;;;;170.00;92.78;;;;;;;;;;5055493;28;20028;-74
2023/02/07 07:55:56;;;;;;;168.23;93.30;;;;;;;;;;5055509;28;20060;-71
2023/02/07 07:58:22;;;;;;;218.10;111.57;;;;;;;;;;5037842;28;20119;-71
2023/02/07 08:00:47;;;;;;;218.00;114.90;;;;;;;;;;5037524;28;20029;-71
2023/02/07 08:03:13;;;;;;;216.98;112.88;;;;;;;;;;5055305;28;20047;-72
2023/02/07 08:05:39;;;;;;;251.95;140.07;;;;;;;;;;5055772;28;20037;-71
2023/02/07 08:08:05;;;;;;;201.68;116.85;;;;;;;;;;5055241;28;20029;-71
2023/02/07 08:10:31;;;;;;;170.52;97.25;;;;;;;;;;5055453;28;20033;-71
2023/02/07 08:12:57;;;;;;;417.13;243.65;;;;;;;;;;5055413;28;20033;-71
2023/02/07 08:15:23;;;;;;;293.65;161.15;;;;;;;;;;5021512;28;20379;-74
2023/02/07 08:17:49;;;;;;;223.93;121.97;;;;;;;;;;5063268;23;20042;-71
2023/02/07 08:20:14;;;;;;;200.25;109.47;;;;;;;;;;5080161;23;20055;-73
2023/02/07 08:22:40;;;;;;;207.57;113.07;;;;;;;;;;5075004;28;20020;-74
2023/02/07 08:25:05;;;;;;;193.40;107.53;;;;;;;;;;5057045;28;20398;-74
2023/02/07 08:30:32;;;;;;;183.68;99.97;;;;;;;;;;5075588;23;20113;-71
2023/02/07 08:32:58;;;;;;;167.75;94.40;;;;;;;;;;5056827;28;20024;-73
2023/02/07 08:35:23;;;;;;;172.18;98.13;;;;;;;;;;5057441;28;20013;-74
2023/02/07 08:37:49;;;;;;;151.07;90.07;;;;;;;;;;5056702;28;20463;-73
2023/02/07 08:40:14;;;;;;;152.18;87.93;;;;;;;;;;5074627;28;20035;-73
2023/02/07 08:42:40;;;;;;;150.38;86.05;;;;;;;;;;5074800;28;20033;-73
2023/02/07 08:45:05;;;;;;;153.35;86.60;;;;;;;;;;5055592;28;20043;-73
2023/02/07 08:47:30;;;;;;;152.85;85.70;;;;;;;;;;5074753;28;20565;-73
2023/02/07 08:49:56;;;;;;;155.07;92.25;;;;;;;;;;5056612;28;20020;-74
2023/02/07 08:52:21;;;;;;;151.60;87.25;;;;;;;;;;5056390;28;20036;-74
2023/02/07 08:54:47;;;;;;;133.70;77.13;;;;;;;;;;5056875;28;20104;-74
2023/02/07 08:57:12;;;;;;;132.90;74.95;;;;;;;;;;5056668;28;20032;-74
2023/02/07 08:59:37;;;;;;;127.05;71.07;;;;;;;;;;5074266;28;20020;-74
2023/02/07 09:02:03;;;;;;;132.82;69.75;;;;;;;;;;5074493;28;20104;-73
2023/02/07 09:04:28;;;;;;;132.55;71.03;;;;;;;;;;5039610;28;20520;-74
2023/02/07 09:06:54;;;;;;;132.90;70.65;;;;;;;;;;5074165;28;20425;-75
2023/02/07 09:09:20;;;;;;;138.23;72.57;;;;;;;;;;5074384;28;20036;-75
2023/02/07 09:11:45;;;;;;;135.30;74.30;;;;;;;;;;5074103;28;20024;-74
2023/02/07 09:14:10;;;;;;;131.10;71.47;;;;;;;;;;5074269;28;20024;-74
2023/02/07 09:16:36;;;;;;;130.48;73.00;;;;;;;;;;5074269;28;20028;-75
2023/02/07 09:19:02;;;;;;;125.38;69.93;;;;;;;;;;5056082;28;20052;-74
2023/02/07 09:21:30;;;;;;;134.70;71.93;;;;;;;;;;5056059;28;20109;-73
2023/02/07 09:23:55;;;;;;;131.68;70.43;;;;;;;;;;5056244;28;20029;-74
2023/02/07 09:26:22;;;;;;;116.80;64.38;;;;;;;;;;5074150;28;20016;-73
2023/02/07 09:28:47;;;;;;;116.32;65.68;;;;;;;;;;5055911;28;20086;-74
2023/02/07 09:31:13;;;;;;;117.57;65.85;;;;;;;;;;5073689;28;20032;-73
2023/02/07 09:33:39;;;;;;;118.57;66.15;;;;;;;;;;5073768;28;20029;-75
2023/02/07 09:36:05;;;;;;;128.50;66.88;;;;;;;;;;5055921;28;20078;-74
2023/02/07 09:38:30;;;;;;;118.28;63.13;;;;;;;;;;5039135;28;20043;-73
2023/02/07 09:40:57;;;;;;;117.43;63.08;;;;;;;;;;5055840;28;20477;-74
2023/02/07 09:43:34;;;;;;;121.28;63.85;;;;;;;;;;5055700;28;20039;-75
2023/02/07 09:46:03;;;;;;;116.28;63.17;;;;;;;;;;5073550;28;20055;-74
2023/02/07 09:48:41;;;;;;;122.85;63.88;;;;;;;;;;5055799;28;20044;-73
2023/02/07 09:51:08;;;;;;;121.30;64.10;;;;;;;;;;5074144;28;20119;-75
2023/02/07 09:53:41;;;;;;;122.45;64.95;;;;;;;;;;5073847;28;20033;-73
2023/02/07 09:56:07;;;;;;;123.45;65.68;;;;;;;;;;5073252;28;20394;-73
2023/02/07 09:58:41;;;;;;;119.32;65.30;;;;;;;;;;5073549;28;20069;-74
2023/02/07 10:01:09;;;;;;;116.60;64.03;;;;;;;;;;5073499;28;20025;-72
2023/02/07 10:03:36;;;;;;;120.88;63.25;;;;;;;;;;5073738;28;20044;-72
2023/02/07 10:06:02;;;;;;;115.32;62.75;;;;;;;;;;5055441;28;20387;-72
2023/02/07 10:08:28;;;;;;;114.43;61.15;;;;;;;;;;5055437;28;20065;-71
2023/02/07 10:10:53;;;;;;;110.55;61.55;;;;;;;;;;5055496;28;20036;-71
2023/02/07 10:13:19;;;;;;;115.28;62.65;;;;;;;;;;5073682;28;20017;-71
2023/02/07 10:15:44;;;;;;;118.57;61.22;;;;;;;;;;5073615;28;20541;-71
2023/02/07 10:18:22;;;;;;;117.70;61.55;;;;;;;;;;5073282;28;20471;-72
2023/02/07 10:20:47;;;;;;;125.22;65.32;;;;;;;;;;5073552;28;20064;-72
2023/02/07 10:23:33;;;;;;;128.55;69.35;;;;;;;;;;5056237;28;20067;-72
2023/02/07 10:26:02;;;;;;;124.55;64.68;;;;;;;;;;5073706;28;20459;-71
2023/02/07 10:28:38;;;;;;;121.78;64.93;;;;;;;;;;5073173;28;20025;-72
2023/02/07 10:31:07;;;;;;;118.53;63.00;;;;;;;;;;5043496;28;20038;-71
2023/02/07 10:33:36;;;;;;;120.97;63.03;;;;;;;;;;5049322;28;20061;-72
2023/02/07 10:36:02;;;;;;;111.90;58.40;;;;;;;;;;5053104;28;20033;-71
2023/02/07 10:38:47;;;;;;;108.15;57.03;;;;;;;;;;5053375;28;20071;-72
2023/02/07 10:41:13;;;;;;;117.07;59.72;;;;;;;;;;5035312;28;20100;-72
2023/02/07 10:43:40;;;;;;;109.13;58.47;;;;;;;;;;5053594;28;20017;-71
2023/02/07 10:46:07;;;;;;;118.63;64.53;;;;;;;;;;5035473;28;20112;-72
2023/02/07 10:48:34;;;;;;;126.20;69.75;;;;;;;;;;5035445;28;20463;-71
2023/02/07 10:51:01;;;;;;;143.07;79.40;;;;;;;;;;5053219;28;20017;-71
2023/02/07 10:53:44;;;;;;;205.45;119.53;;;;;;;;;;5052954;28;20032;-72
2023/02/07 10:56:17;;;;;;;149.30;83.07;;;;;;;;;;5052902;28;20407;-71
2023/02/07 10:58:42;;;;;;;151.82;79.68;;;;;;;;;;5053195;28;20111;-72
2023/02/07 11:01:16;;;;;;;168.20;88.47;;;;;;;;;;5053182;28;20056;-72
2023/02/07 11:03:42;;;;;;;150.88;81.55;;;;;;;;;;5051912;23;20103;-72
2023/02/07 11:06:27;;;;;;;135.10;71.72;;;;;;;;;;5082364;22;20055;-74
2023/02/07 11:09:11;;;;;;;154.43;76.82;;;;;;;;;;4999910;28;20053;-71
2023/02/07 11:11:39;;;;;;;168.05;84.60;;;;;;;;;;5036442;28;20079;-71
2023/02/07 11:14:05;;;;;;;148.73;75.55;;;;;;;;;;5036699;28;20068;-72
2023/02/07 11:16:31;;;;;;;143.40;79.30;;;;;;;;;;5036673;28;20030;-71
2023/02/07 11:18:56;;;;;;;141.00;74.82;;;;;;;;;;5018861;28;20033;-71
2023/02/07 11:21:39;;;;;;;156.00;80.80;;;;;;;;;;5036521;28;20072;-71
2023/02/07 11:24:06;;;;;;;150.30;80.55;;;;;;;;;;5036164;28;20084;-71
2023/02/07 11:26:32;;;;;;;137.93;75.95;;;;;;;;;;5018330;28;20033;-72
2023/02/07 11:29:02;;;;;;;137.00;70.85;;;;;;;;;;5018766;28;20025;-72
2023/02/07 11:31:29;;;;;;;129.98;70.63;;;;;;;;;;5036238;28;20021;-72
2023/02/07 11:34:05;;;;;;;137.57;76.15;;;;;;;;;;5036294;28;20017;-71
2023/02/07 11:36:32;;;;;;;132.05;73.70;;;;;;;;;;5018278;28;20369;-71
2023/02/07 11:38:58;;;;;;;139.68;77.32;;;;;;;;;;5018455;28;20037;-71
2023/02/07 11:41:26;;;;;;;137.45;76.55;;;;;;;;;;5035856;28;20021;-71
2023/02/07 11:43:56;;;;;;;140.18;76.30;;;;;;;;;;5035852;28;20040;-70
2023/02/07 11:46:28;;;;;;;141.25;79.05;;;;;;;;;;5017923;28;20450;-71
2023/02/07 11:48:55;;;;;;;143.13;80.72;;;;;;;;;;5017957;28;20467;-71
2023/02/07 11:51:20;;;;;;;162.50;90.40;;;;;;;;;;5017934;28;20021;-71
2023/02/07 11:53:47;;;;;;;170.93;96.63;;;;;;;;;;5018299;28;20101;-71
2023/02/07 11:56:21;;;;;;;166.20;92.68;;;;;;;;;;5035572;28;20083;-71
2023/02/07 11:58:48;;;;;;;143.32;83.00;;;;;;;;;;5035758;28;20531;-71
2023/02/07 12:01:20;;;;;;;141.10;80.13;;;;;;;;;;5035539;28;20035;-71
2023/02/07 12:03:48;;;;;;;144.20;80.70;;;;;;;;;;5035947;28;20072;-71
2023/02/07 12:06:15;;;;;;;144.60;79.68;;;;;;;;;;5018233;28;20049;-70
2023/02/07 12:08:40;;;;;;;139.40;78.15;;;;;;;;;;5035093;28;20037;-71
2023/02/07 12:11:10;;;;;;;133.60;75.15;;;;;;;;;;5017555;28;20495;-75
2023/02/07 12:13:41;;;;;;;131.53;70.97;;;;;;;;;;5035290;28;20430;-73
2023/02/07 12:16:10;;;;;;;124.10;66.80;;;;;;;;;;5035210;28;20116;-74
2023/02/07 12:18:41;;;;;;;126.67;67.27;;;;;;;;;;5017313;28;20376;-74
2023/02/07 12:21:16;;;;;;;119.07;68.05;;;;;;;;;;5035121;28;20265;-73
2023/02/07 12:24:00;;;;;;;121.25;64.18;;;;;;;;;;5017616;28;20029;-74
2023/02/07 12:26:35;;;;;;;102.43;55.55;;;;;;;;;;5000904;28;20491;-74
2023/02/07 12:29:00;;;;;;;89.25;49.25;;;;;;;;;;5017263;28;20037;-74
2023/02/07 12:31:44;;;;;;;83.28;45.45;;;;;;;;;;5017150;28;20025;-75
2023/02/07 12:34:09;;;;;;;86.85;44.95;;;;;;;;;;5017496;28;20029;-74
2023/02/07 12:36:37;;;;;;;86.25;44.15;;;;;;;;;;5034830;28;20086;-74
2023/02/07 12:39:13;;;;;;;81.97;43.08;;;;;;;;;;5034948;28;20042;-74
2023/02/07 12:41:45;;;;;;;92.00;46.63;;;;;;;;;;5017002;28;20052;-75
2023/02/07 12:44:25;;;;;;;90.00;44.33;;;;;;;;;;5034649;28;20446;-75
2023/02/07 12:46:54;;;;;;;100.75;47.45;;;;;;;;;;5000542;28;20030;-74
2023/02/07 12:49:19;;;;;;;77.35;39.85;;;;;;;;;;5000504;28;20048;-75
2023/02/07 12:52:03;;;;;;;95.03;45.20;;;;;;;;;;5016962;28;20475;-75
2023/02/07 12:54:36;;;;;;;70.68;38.55;;;;;;;;;;5034968;28;20033;-74
2023/02/07 12:57:07;;;;;;;79.22;40.97;;;;;;;;;;5034700;28;20048;-72
2023/02/07 12:59:58;;;;;;;70.10;37.50;;;;;;;;;;5034606;28;20391;-72
2023/02/07 13:02:26;;;;;;;64.13;36.92;;;;;;;;;;5034361;28;20121;-71
2023/02/07 13:05:17;;;;;;;66.25;40.40;;;;;;;;;;5000169;28;20551;-72
2023/02/07 13:07:42;;;;;;;67.72;35.70;;;;;;;;;;5034053;28;20056;-71
2023/02/07 13:10:37;;;;;;;80.80;39.90;;;;;;;;;;5034181;28;20387;-71
2023/02/07 13:13:16;;;;;;;57.22;32.70;;;;;;;;;;5015170;28;20037;-71
2023/02/07 13:15:45;;;;;;;61.63;33.20;;;;;;;;;;5016423;28;20052;-71
2023/02/07 13:18:10;;;;;;;50.85;31.33;;;;;;;;;;5034145;28;20025;-72
2023/02/07 13:20:35;;;;;;;61.55;32.75;;;;;;;;;;5000546;28;20044;-71
2023/02/07 13:23:16;;;;;;;51.55;29.73;;;;;;;;;;5034291;28;20117;-71
2023/02/07 13:25:42;;;;;;;56.70;32.67;;;;;;;;;;5033883;28;20040;-70
2023/02/07 13:28:19;;;;;;;52.45;29.17;;;;;;;;;;5033931;28;20494;-74
2023/02/07 13:30:46;;;;;;;43.92;25.20;;;;;;;;;;5033702;28;20025;-74
2023/02/07 13:33:23;;;;;;;43.72;25.70;;;;;;;;;;5016324;28;20078;-74
2023/02/07 13:35:50;;;;;;;49.67;27.73;;;;;;;;;;5034083;28;20063;-74
2023/02/07 13:38:18;;;;;;;48.28;27.92;;;;;;;;;;5034121;28;20038;-74
2023/02/07 13:40:57;;;;;;;41.08;25.33;;;;;;;;;;5016346;28;20037;-71
2023/02/07 13:43:41;;;;;;;48.97;27.30;;;;;;;;;;5052163;23;20071;-75
2023/02/07 13:46:18;;;;;;;55.78;30.77;;;;;;;;;;5055610;28;20119;-75
2023/02/07 13:49:00;;;;;;;42.33;23.65;;;;;;;;;;5073932;28;20029;-74
2023/02/07 13:51:41;;;;;;;32.63;20.55;;;;;;;;;;5073863;28;20028;-73
2023/02/07 13:54:28;;;;;;;36.30;21.77;;;;;;;;;;5073869;28;20029;-74
2023/02/07 13:59:41;;;;;;;67.78;34.70;;;;;;;;;;5055480;28;20103;-74
2023/02/07 14:02:20;;;;;;;38.53;23.63;;;;;;;;;;5055609;28;20113;-73
2023/02/07 14:04:51;;;;;;;290.55;115.50;;;;;;;;;;5073357;28;20123;-74
2023/02/07 14:07:20;;;;;;;54.03;28.27;;;;;;;;;;5073686;28;20040;-74
2023/02/07 14:09:46;;;;;;;27.83;17.90;;;;;;;;;;5073694;28;20020;-73
2023/02/07 14:12:15;;;;;;;34.35;19.80;;;;;;;;;;5073401;28;20074;-73
2023/02/07 14:14:41;;;;;;;29.40;17.55;;;;;;;;;;5038773;28;20074;-74
2023/02/07 14:17:06;;;;;;;30.58;18.30;;;;;;;;;;5073642;28;20029;-75
2023/02/07 14:19:41;;;;;;;31.65;18.92;;;;;;;;;;5073315;28;20029;-74
2023/02/07 14:22:15;;;;;;;34.97;21.98;;;;;;;;;;5055329;28;20028;-73